sensor_id;sensor_type;location;lat;lon;timestamp;pressure;altitude;pressure_sealevel;temperature;humidity
61345;BME280;47216;42.656;23.232;2023-03-04T06:31:58;93844.19;;;4.69;83.26
61345;BME280;47216;42.656;23.232;2023-03-04T06:34:28;93846.81;;;4.87;81.92
61345;BME280;47216;42.656;23.232;2023-03-04T06:36:58;93842.38;;;4.94;81.01
61345;BME280;47216;42.656;23.232;2023-03-04T06:39:27;93849.13;;;4.95;80.37
61345;BME280;47216;42.656;23.232;2023-03-04T06:42:01;93852.41;;;5.09;79.88
61345;BME280;47216;42.656;23.232;2023-03-04T06:44:30;93846.88;;;5.24;79.60
61345;BME280;47216;42.656;23.232;2023-03-04T06:47:04;93851.91;;;5.37;79.12
61345;BME280;47216;42.656;23.232;2023-03-04T06:49:34;93848.63;;;5.48;79.06
61345;BME280;47216;42.656;23.232;2023-03-04T06:52:01;93858.25;;;5.78;80.18
61345;BME280;47216;42.656;23.232;2023-03-04T07:09:16;93849.78;;;20.24;53.08
61345;BME280;47216;42.656;23.232;2023-03-04T07:11:48;93841.78;;;21.98;48.17
61345;BME280;47216;42.656;23.232;2023-03-04T07:14:19;93855.38;;;22.64;45.81
61345;BME280;47216;42.656;23.232;2023-03-04T07:16:49;93850.78;;;22.74;45.62
61345;BME280;47216;42.656;23.232;2023-03-04T07:19:20;93849.19;;;22.73;45.14
61345;BME280;47216;42.656;23.232;2023-03-04T07:21:52;93866.50;;;23.09;44.57
61345;BME280;47216;42.656;23.232;2023-03-04T07:24:38;93867.13;;;23.60;43.32
61345;BME280;47216;42.656;23.232;2023-03-04T07:27:12;93860.81;;;24.22;41.43
61345;BME280;47216;42.656;23.232;2023-03-04T07:29:44;93859.81;;;24.27;41.71
61345;BME280;47216;42.656;23.232;2023-03-04T07:32:17;93860.81;;;24.35;41.41
61345;BME280;47216;42.656;23.232;2023-03-04T07:34:52;93865.03;;;24.23;41.18
61345;BME280;47216;42.656;23.232;2023-03-04T07:37:27;93866.03;;;24.56;40.92
61345;BME280;47216;42.656;23.232;2023-03-04T07:40:01;93861.69;;;24.39;40.70
61345;BME280;47216;42.656;23.232;2023-03-04T07:42:32;93857.47;;;24.62;39.93
61345;BME280;47216;42.656;23.232;2023-03-04T07:45:07;93859.13;;;24.42;40.25
61345;BME280;47216;42.656;23.232;2023-03-04T07:47:44;93854.16;;;24.53;40.22
61345;BME280;47216;42.656;23.232;2023-03-04T07:50:14;93860.38;;;24.45;40.07
61345;BME280;47216;42.656;23.232;2023-03-04T07:52:47;93854.38;;;24.60;40.29
61345;BME280;47216;42.656;23.232;2023-03-04T07:55:21;93849.03;;;24.60;40.06
61345;BME280;47216;42.656;23.232;2023-03-04T07:57:52;93851.63;;;24.57;39.70
61345;BME280;47216;42.656;23.232;2023-03-04T08:00:27;93852.06;;;24.59;39.78
61345;BME280;47216;42.656;23.232;2023-03-04T08:03:03;93851.56;;;24.44;39.56
61345;BME280;47216;42.656;23.232;2023-03-04T08:05:38;93848.59;;;24.46;39.56
61345;BME280;47216;42.656;23.232;2023-03-04T08:08:10;93849.91;;;24.40;39.78
61345;BME280;47216;42.656;23.232;2023-03-04T08:10:44;93851.94;;;24.55;39.54
61345;BME280;47216;42.656;23.232;2023-03-04T08:13:19;93850.69;;;24.28;39.53
61345;BME280;47216;42.656;23.232;2023-03-04T08:15:50;93847.94;;;24.49;39.30
61345;BME280;47216;42.656;23.232;2023-03-04T08:18:24;93851.38;;;24.13;39.74
61345;BME280;47216;42.656;23.232;2023-03-04T08:20:58;93845.72;;;24.26;39.85
61345;BME280;47216;42.656;23.232;2023-03-04T08:23:31;93849.59;;;24.04;40.16
61345;BME280;47216;42.656;23.232;2023-03-04T08:26:09;93844.28;;;24.29;39.39
61345;BME280;47216;42.656;23.232;2023-03-04T08:28:42;93842.69;;;24.28;39.51
61345;BME280;47216;42.656;23.232;2023-03-04T08:31:17;93840.69;;;24.37;39.33
61345;BME280;47216;42.656;23.232;2023-03-04T08:33:53;93841.03;;;24.11;39.64
61345;BME280;47216;42.656;23.232;2023-03-04T08:36:25;93842.16;;;24.22;38.91
61345;BME280;47216;42.656;23.232;2023-03-04T08:38:54;93841.16;;;24.02;39.09
61345;BME280;47216;42.656;23.232;2023-03-04T08:41:32;93837.94;;;24.33;38.51
61345;BME280;47216;42.656;23.232;2023-03-04T08:44:05;93835.03;;;24.02;39.20
61345;BME280;47216;42.656;23.232;2023-03-04T08:46:38;93836.38;;;24.20;39.00
61345;BME280;47216;42.656;23.232;2023-03-04T08:49:10;93836.50;;;23.87;39.29
61345;BME280;47216;42.656;23.232;2023-03-04T08:51:42;93833.50;;;24.25;38.58
61345;BME280;47216;42.656;23.232;2023-03-04T08:54:12;93832.78;;;23.79;39.15
61345;BME280;47216;42.656;23.232;2023-03-04T08:56:45;93834.59;;;24.12;38.68
61345;BME280;47216;42.656;23.232;2023-03-04T08:59:17;93828.19;;;24.01;38.79
61345;BME280;47216;42.656;23.232;2023-03-04T09:01:54;93829.84;;;24.05;38.97
61345;BME280;47216;42.656;23.232;2023-03-04T09:04:31;93833.81;;;24.11;38.40
61345;BME280;47216;42.656;23.232;2023-03-04T09:07:05;93827.50;;;24.04;38.58
61345;BME280;47216;42.656;23.232;2023-03-04T09:09:37;93833.03;;;23.86;38.33
61345;BME280;47216;42.656;23.232;2023-03-04T09:12:13;93828.16;;;23.88;38.78
61345;BME280;47216;42.656;23.232;2023-03-04T09:14:46;93829.03;;;23.80;38.93
61345;BME280;47216;42.656;23.232;2023-03-04T09:17:19;93821.94;;;24.09;38.18
61345;BME280;47216;42.656;23.232;2023-03-04T09:19:51;93818.72;;;23.91;38.45
61345;BME280;47216;42.656;23.232;2023-03-04T09:22:26;93817.06;;;23.99;38.52
61345;BME280;47216;42.656;23.232;2023-03-04T09:24:58;93818.13;;;23.73;38.50
61345;BME280;47216;42.656;23.232;2023-03-04T09:27:32;93818.41;;;23.80;38.26
61345;BME280;47216;42.656;23.232;2023-03-04T09:30:04;93810.41;;;23.93;38.20
61345;BME280;47216;42.656;23.232;2023-03-04T09:32:39;93816.59;;;23.84;37.96
61345;BME280;47216;42.656;23.232;2023-03-04T09:35:12;93814.13;;;23.67;38.66
61345;BME280;47216;42.656;23.232;2023-03-04T09:37:44;93816.56;;;23.60;38.90
61345;BME280;47216;42.656;23.232;2023-03-04T09:40:19;93812.16;;;23.76;38.06
61345;BME280;47216;42.656;23.232;2023-03-04T09:42:59;93805.41;;;23.79;38.49
61345;BME280;47216;42.656;23.232;2023-03-04T09:45:36;93808.13;;;23.70;38.19
61345;BME280;47216;42.656;23.232;2023-03-04T09:48:12;93802.19;;;23.98;37.56
61345;BME280;47216;42.656;23.232;2023-03-04T09:50:50;93801.97;;;23.90;37.53
61345;BME280;47216;42.656;23.232;2023-03-04T09:53:34;93802.50;;;23.84;37.73
61345;BME280;47216;42.656;23.232;2023-03-04T09:56:08;93803.72;;;23.74;37.78
61345;BME280;47216;42.656;23.232;2023-03-04T09:58:54;93798.16;;;23.67;38.20
61345;BME280;47216;42.656;23.232;2023-03-04T10:01:31;93796.19;;;23.76;38.26
61345;BME280;47216;42.656;23.232;2023-03-04T10:04:10;93791.75;;;24.05;37.17
61345;BME280;47216;42.656;23.232;2023-03-04T10:06:44;93788.66;;;23.78;37.77
61345;BME280;47216;42.656;23.232;2023-03-04T10:09:27;93785.31;;;24.18;37.12
61345;BME280;47216;42.656;23.232;2023-03-04T10:12:02;93782.88;;;23.88;37.29
61345;BME280;47216;42.656;23.232;2023-03-04T10:14:41;93784.44;;;24.02;37.23
61345;BME280;47216;42.656;23.232;2023-03-04T10:17:16;93779.28;;;23.72;38.04
61345;BME280;47216;42.656;23.232;2023-03-04T10:19:55;93779.00;;;23.86;37.61
61345;BME280;47216;42.656;23.232;2023-03-04T10:22:30;93777.53;;;23.64;38.11
61345;BME280;47216;42.656;23.232;2023-03-04T10:25:17;93772.22;;;23.88;37.73
61345;BME280;47216;42.656;23.232;2023-03-04T10:27:51;93769.94;;;23.66;37.90
61345;BME280;47216;42.656;23.232;2023-03-04T10:30:33;93768.34;;;23.86;37.34
61345;BME280;47216;42.656;23.232;2023-03-04T10:33:20;93762.41;;;23.68;37.53
61345;BME280;47216;42.656;23.232;2023-03-04T10:35:57;93766.47;;;23.99;37.26
61345;BME280;47216;42.656;23.232;2023-03-04T10:38:32;93757.75;;;23.65;37.42
61345;BME280;47216;42.656;23.232;2023-03-04T10:41:12;93760.44;;;23.77;37.47
61345;BME280;47216;42.656;23.232;2023-03-04T10:43:58;93750.22;;;23.67;37.52
61345;BME280;47216;42.656;23.232;2023-03-04T10:46:38;93745.81;;;23.83;37.22
61345;BME280;47216;42.656;23.232;2023-03-04T10:49:10;93742.16;;;23.88;36.73
61345;BME280;47216;42.656;23.232;2023-03-04T10:51:43;93736.06;;;23.87;37.29
61345;BME280;47216;42.656;23.232;2023-03-04T10:54:23;93743.03;;;23.80;36.86
61345;BME280;47216;42.656;23.232;2023-03-04T10:56:58;93734.03;;;23.84;36.73
61345;BME280;47216;42.656;23.232;2023-03-04T10:59:40;93725.59;;;23.70;37.21
61345;BME280;47216;42.656;23.232;2023-03-04T11:02:24;93726.25;;;23.67;36.89
61345;BME280;47216;42.656;23.232;2023-03-04T11:05:05;93720.50;;;23.77;36.89
61345;BME280;47216;42.656;23.232;2023-03-04T11:07:40;93713.41;;;23.81;37.02
61345;BME280;47216;42.656;23.232;2023-03-04T11:10:17;93715.50;;;23.63;37.37
61345;BME280;47216;42.656;23.232;2023-03-04T11:12:59;93709.94;;;23.56;37.52
61345;BME280;47216;42.656;23.232;2023-03-04T11:15:31;93705.28;;;23.65;36.85
61345;BME280;47216;42.656;23.232;2023-03-04T11:18:25;93700.63;;;23.62;37.14
61345;BME280;47216;42.656;23.232;2023-03-04T11:21:09;93703.19;;;23.71;36.84
61345;BME280;47216;42.656;23.232;2023-03-04T11:23:48;93694.75;;;23.69;36.71
61345;BME280;47216;42.656;23.232;2023-03-04T11:26:27;93694.63;;;23.53;37.11
61345;BME280;47216;42.656;23.232;2023-03-04T11:29:01;93693.19;;;23.56;37.41
61345;BME280;47216;42.656;23.232;2023-03-04T11:31:40;93682.31;;;23.61;37.03
61345;BME280;47216;42.656;23.232;2023-03-04T11:34:19;93685.34;;;23.59;37.25
61345;BME280;47216;42.656;23.232;2023-03-04T11:36:58;93673.13;;;23.58;37.34
61345;BME280;47216;42.656;23.232;2023-03-04T11:39:37;93676.47;;;23.55;37.31
61345;BME280;47216;42.656;23.232;2023-03-04T11:42:17;93669.25;;;23.56;36.85
61345;BME280;47216;42.656;23.232;2023-03-04T11:44:54;93666.69;;;23.47;37.27
61345;BME280;47216;42.656;23.232;2023-03-04T11:47:41;93662.47;;;23.58;37.13
61345;BME280;47216;42.656;23.232;2023-03-04T11:50:36;93660.25;;;23.60;36.69
61345;BME280;47216;42.656;23.232;2023-03-04T11:53:26;93662.38;;;23.55;37.23
61345;BME280;47216;42.656;23.232;2023-03-04T11:56:15;93654.59;;;23.62;37.02
61345;BME280;47216;42.656;23.232;2023-03-04T12:02:07;93655.69;;;23.61;36.77
61345;BME280;47216;42.656;23.232;2023-03-04T12:05:00;93649.41;;;23.53;36.99
61345;BME280;47216;42.656;23.232;2023-03-04T12:07:48;93654.38;;;23.42;36.83
61345;BME280;47216;42.656;23.232;2023-03-04T12:10:29;93647.06;;;23.52;37.04
61345;BME280;47216;42.656;23.232;2023-03-04T12:13:18;93639.72;;;23.61;36.46
61345;BME280;47216;42.656;23.232;2023-03-04T12:16:00;93640.63;;;23.53;36.76
61345;BME280;47216;42.656;23.232;2023-03-04T12:18:47;93640.19;;;23.51;36.66
61345;BME280;47216;42.656;23.232;2023-03-04T12:21:37;93637.50;;;23.63;36.43
61345;BME280;47216;42.656;23.232;2023-03-04T12:24:36;93626.53;;;23.52;36.56
61345;BME280;47216;42.656;23.232;2023-03-04T12:27:21;93627.44;;;23.44;36.83
61345;BME280;47216;42.656;23.232;2023-03-04T12:29:58;93619.53;;;23.47;36.56
61345;BME280;47216;42.656;23.232;2023-03-04T12:32:39;93613.25;;;23.40;37.04
61345;BME280;47216;42.656;23.232;2023-03-04T12:35:25;93615.56;;;23.41;37.08
61345;BME280;47216;42.656;23.232;2023-03-04T12:41:24;93614.22;;;23.47;36.60
61345;BME280;47216;42.656;23.232;2023-03-04T12:44:06;93615.34;;;23.22;37.30
61345;BME280;47216;42.656;23.232;2023-03-04T12:47:05;93615.25;;;23.31;36.86
61345;BME280;47216;42.656;23.232;2023-03-04T12:49:56;93613.22;;;23.15;37.08
61345;BME280;47216;42.656;23.232;2023-03-04T12:52:36;93606.94;;;23.32;36.74
61345;BME280;47216;42.656;23.232;2023-03-04T12:55:14;93600.94;;;23.35;36.75
61345;BME280;47216;42.656;23.232;2023-03-04T12:57:55;93595.84;;;23.18;36.98
61345;BME280;47216;42.656;23.232;2023-03-04T13:00:39;93595.41;;;23.28;37.17
61345;BME280;47216;42.656;23.232;2023-03-04T13:03:17;93591.63;;;23.29;36.83
61345;BME280;47216;42.656;23.232;2023-03-04T13:06:10;93584.00;;;23.27;37.00
61345;BME280;47216;42.656;23.232;2023-03-04T13:08:54;93583.66;;;23.04;37.20
61345;BME280;47216;42.656;23.232;2023-03-04T13:11:54;93584.06;;;23.31;36.70
61345;BME280;47216;42.656;23.232;2023-03-04T13:14:38;93578.78;;;23.06;37.24
61345;BME280;47216;42.656;23.232;2023-03-04T13:17:39;93582.41;;;23.51;36.75
61345;BME280;47216;42.656;23.232;2023-03-04T13:20:24;93570.34;;;23.29;36.64
61345;BME280;47216;42.656;23.232;2023-03-04T13:23:23;93574.22;;;23.32;36.65
61345;BME280;47216;42.656;23.232;2023-03-04T13:26:23;93576.09;;;23.31;36.29
61345;BME280;47216;42.656;23.232;2023-03-04T13:29:35;93562.59;;;22.99;37.31
61345;BME280;47216;42.656;23.232;2023-03-04T13:32:11;93572.66;;;23.31;36.62
61345;BME280;47216;42.656;23.232;2023-03-04T13:34:55;93568.16;;;23.06;37.21
61345;BME280;47216;42.656;23.232;2023-03-04T13:37:30;93567.81;;;23.20;36.67
61345;BME280;47216;42.656;23.232;2023-03-04T13:40:32;93574.31;;;22.98;37.24
61345;BME280;47216;42.656;23.232;2023-03-04T13:43:27;93564.25;;;23.04;37.22
61345;BME280;47216;42.656;23.232;2023-03-04T13:46:37;93566.69;;;23.09;36.82
61345;BME280;47216;42.656;23.232;2023-03-04T13:49:19;93562.59;;;22.99;36.99
61345;BME280;47216;42.656;23.232;2023-03-04T13:51:49;93557.94;;;23.09;37.17
61345;BME280;47216;42.656;23.232;2023-03-04T13:54:22;93555.50;;;23.16;36.63
61345;BME280;47216;42.656;23.232;2023-03-04T13:57:14;93549.31;;;22.99;36.95
61345;BME280;47216;42.656;23.232;2023-03-04T13:59:47;93552.06;;;23.03;37.11
61345;BME280;47216;42.656;23.232;2023-03-04T14:02:27;93545.50;;;23.13;37.04
61345;BME280;47216;42.656;23.232;2023-03-04T14:05:01;93549.75;;;23.01;36.91
61345;BME280;47216;42.656;23.232;2023-03-04T14:07:40;93541.53;;;23.06;37.19
61345;BME280;47216;42.656;23.232;2023-03-04T14:10:23;93543.97;;;23.12;36.78
61345;BME280;47216;42.656;23.232;2023-03-04T14:13:07;93538.41;;;23.17;36.62
61345;BME280;47216;42.656;23.232;2023-03-04T14:15:40;93534.19;;;22.91;37.15
61345;BME280;47216;42.656;23.232;2023-03-04T14:18:14;93541.34;;;22.99;37.17
61345;BME280;47216;42.656;23.232;2023-03-04T14:20:50;93529.09;;;22.86;37.08
61345;BME280;47216;42.656;23.232;2023-03-04T14:23:29;93528.44;;;22.89;37.20
61345;BME280;47216;42.656;23.232;2023-03-04T14:26:10;93531.63;;;22.82;37.18
61345;BME280;47216;42.656;23.232;2023-03-04T14:28:44;93530.13;;;23.06;36.94
61345;BME280;47216;42.656;23.232;2023-03-04T14:31:18;93520.91;;;22.79;37.44
61345;BME280;47216;42.656;23.232;2023-03-04T14:33:53;93527.34;;;23.15;36.98
61345;BME280;47216;42.656;23.232;2023-03-04T14:36:31;93523.69;;;23.32;36.62
61345;BME280;47216;42.656;23.232;2023-03-04T14:39:11;93525.56;;;23.19;36.69
61345;BME280;47216;42.656;23.232;2023-03-04T14:41:46;93512.59;;;23.30;36.78
61345;BME280;47216;42.656;23.232;2023-03-04T14:44:27;93513.81;;;23.20;36.92
61345;BME280;47216;42.656;23.232;2023-03-04T14:47:09;93510.88;;;23.49;36.58
61345;BME280;47216;42.656;23.232;2023-03-04T14:49:44;93506.22;;;23.46;36.81
61345;BME280;47216;42.656;23.232;2023-03-04T14:52:35;93503.69;;;23.50;36.78
61345;BME280;47216;42.656;23.232;2023-03-04T14:55:24;93506.38;;;23.66;36.28
61345;BME280;47216;42.656;23.232;2023-03-04T14:58:07;93495.75;;;23.78;36.33
61345;BME280;47216;42.656;23.232;2023-03-04T15:00:40;93499.59;;;23.81;36.49
61345;BME280;47216;42.656;23.232;2023-03-04T15:03:22;93498.09;;;23.96;36.49
61345;BME280;47216;42.656;23.232;2023-03-04T15:06:06;93492.72;;;24.08;36.35
61345;BME280;47216;42.656;23.232;2023-03-04T15:08:40;93491.97;;;24.23;36.18
61345;BME280;47216;42.656;23.232;2023-03-04T15:11:23;93487.25;;;24.32;35.81
61345;BME280;47216;42.656;23.232;2023-03-04T15:14:00;93486.97;;;24.38;35.59
61345;BME280;47216;42.656;23.232;2023-03-04T15:16:54;93473.41;;;24.27;39.69
61345;BME280;47216;42.656;23.232;2023-03-04T15:19:28;93468.53;;;23.85;37.09
61345;BME280;47216;42.656;23.232;2023-03-04T15:22:07;93471.84;;;24.10;36.91
61345;BME280;47216;42.656;23.232;2023-03-04T15:24:40;93464.06;;;23.89;38.62
61345;BME280;47216;42.656;23.232;2023-03-04T15:27:13;93468.75;;;24.24;37.21
61345;BME280;47216;42.656;23.232;2023-03-04T15:29:44;93459.19;;;24.07;37.26
61345;BME280;47216;42.656;23.232;2023-03-04T15:32:14;93461.78;;;24.35;37.21
61345;BME280;47216;42.656;23.232;2023-03-04T15:34:44;93460.25;;;24.18;37.37
61345;BME280;47216;42.656;23.232;2023-03-04T15:37:19;93464.56;;;23.79;37.79
61345;BME280;47216;42.656;23.232;2023-03-04T15:39:48;93462.09;;;23.45;38.31
61345;BME280;47216;42.656;23.232;2023-03-04T15:42:16;93457.00;;;23.40;38.53
61345;BME280;47216;42.656;23.232;2023-03-04T15:44:45;93453.94;;;23.26;38.47
61345;BME280;47216;42.656;23.232;2023-03-04T15:47:13;93447.28;;;23.20;38.64
61345;BME280;47216;42.656;23.232;2023-03-04T15:49:41;93449.09;;;23.03;38.73
61345;BME280;47216;42.656;23.232;2023-03-04T15:52:17;93448.00;;;23.04;39.01
61345;BME280;47216;42.656;23.232;2023-03-04T15:54:46;93453.53;;;22.87;39.26
61345;BME280;47216;42.656;23.232;2023-03-04T15:57:20;93446.34;;;23.00;38.96
61345;BME280;47216;42.656;23.232;2023-03-04T15:59:49;93444.47;;;22.88;39.15
61345;BME280;47216;42.656;23.232;2023-03-04T16:02:19;93440.25;;;22.87;39.30
61345;BME280;47216;42.656;23.232;2023-03-04T16:04:49;93448.91;;;22.72;39.29
61345;BME280;47216;42.656;23.232;2023-03-04T16:07:23;93448.25;;;22.75;39.33
61345;BME280;47216;42.656;23.232;2023-03-04T16:09:54;93449.91;;;22.67;39.31
61345;BME280;47216;42.656;23.232;2023-03-04T16:12:25;93458.41;;;22.85;39.82
61345;BME280;47216;42.656;23.232;2023-03-04T16:14:55;93444.69;;;23.07;39.91
61345;BME280;47216;42.656;23.232;2023-03-04T16:17:25;93451.16;;;23.35;39.71
61345;BME280;47216;42.656;23.232;2023-03-04T16:19:54;93450.09;;;23.52;39.42
61345;BME280;47216;42.656;23.232;2023-03-04T16:22:27;93455.63;;;23.59;39.22
61345;BME280;47216;42.656;23.232;2023-03-04T16:24:57;93446.94;;;23.74;38.81
61345;BME280;47216;42.656;23.232;2023-03-04T16:27:25;93444.94;;;23.71;39.41
61345;BME280;47216;42.656;23.232;2023-03-04T16:29:56;93451.69;;;23.81;39.09
61345;BME280;47216;42.656;23.232;2023-03-04T16:32:26;93451.69;;;23.40;39.79
61345;BME280;47216;42.656;23.232;2023-03-04T16:34:56;93453.44;;;23.48;39.10
61345;BME280;47216;42.656;23.232;2023-03-04T16:37:28;93454.22;;;23.09;40.10
61345;BME280;47216;42.656;23.232;2023-03-04T16:39:59;93452.59;;;23.32;39.64
61345;BME280;47216;42.656;23.232;2023-03-04T16:42:27;93453.88;;;22.98;39.91
61345;BME280;47216;42.656;23.232;2023-03-04T16:44:55;93459.06;;;23.19;39.64
61345;BME280;47216;42.656;23.232;2023-03-04T16:47:24;93458.75;;;22.83;40.24
61345;BME280;47216;42.656;23.232;2023-03-04T16:49:54;93469.69;;;22.94;40.22
61345;BME280;47216;42.656;23.232;2023-03-04T16:52:26;93458.00;;;22.83;40.07
61345;BME280;47216;42.656;23.232;2023-03-04T16:54:57;93463.06;;;22.88;39.98
61345;BME280;47216;42.656;23.232;2023-03-04T16:57:25;93466.84;;;22.75;40.19
61345;BME280;47216;42.656;23.232;2023-03-04T16:59:54;93467.06;;;22.82;40.14
61345;BME280;47216;42.656;23.232;2023-03-04T17:02:24;93462.28;;;22.75;40.10
61345;BME280;47216;42.656;23.232;2023-03-04T17:04:53;93467.06;;;22.70;40.36
61345;BME280;47216;42.656;23.232;2023-03-04T17:07:24;93470.84;;;22.56;40.65
61345;BME280;47216;42.656;23.232;2023-03-04T17:09:55;93479.25;;;22.58;40.49
61345;BME280;47216;42.656;23.232;2023-03-04T17:12:23;93469.94;;;22.52;40.53
61345;BME280;47216;42.656;23.232;2023-03-04T17:14:50;93474.34;;;22.48;40.67
61345;BME280;47216;42.656;23.232;2023-03-04T17:17:20;93466.16;;;22.41;40.64
61345;BME280;47216;42.656;23.232;2023-03-04T17:19:50;93473.03;;;22.42;40.73
61345;BME280;47216;42.656;23.232;2023-03-04T17:22:19;93464.41;;;22.45;40.61
61345;BME280;47216;42.656;23.232;2023-03-04T17:24:47;93473.38;;;22.40;40.67
61345;BME280;47216;42.656;23.232;2023-03-04T17:27:17;93463.50;;;22.41;40.56
61345;BME280;47216;42.656;23.232;2023-03-04T17:29:45;93478.75;;;22.32;40.75
61345;BME280;47216;42.656;23.232;2023-03-04T17:32:20;93476.91;;;22.32;40.60
61345;BME280;47216;42.656;23.232;2023-03-04T17:34:57;93472.25;;;22.29;40.86
61345;BME280;47216;42.656;23.232;2023-03-04T17:37:33;93470.47;;;22.21;40.86
61345;BME280;47216;42.656;23.232;2023-03-04T17:40:08;93478.72;;;22.19;40.87
61345;BME280;47216;42.656;23.232;2023-03-04T17:42:44;93481.88;;;22.21;41.00
61345;BME280;47216;42.656;23.232;2023-03-04T17:45:17;93477.19;;;22.18;40.93
61345;BME280;47216;42.656;23.232;2023-03-04T17:47:50;93474.84;;;22.17;40.89
61345;BME280;47216;42.656;23.232;2023-03-04T17:50:18;93482.31;;;22.23;40.75
61345;BME280;47216;42.656;23.232;2023-03-04T17:52:48;93475.78;;;22.21;40.68
61345;BME280;47216;42.656;23.232;2023-03-04T17:55:21;93484.22;;;22.02;41.04
61345;BME280;47216;42.656;23.232;2023-03-04T17:57:56;93475.94;;;22.16;40.95
61345;BME280;47216;42.656;23.232;2023-03-04T18:00:26;93477.59;;;22.20;40.87
61345;BME280;47216;42.656;23.232;2023-03-04T18:02:59;93482.63;;;22.22;40.74
61345;BME280;47216;42.656;23.232;2023-03-04T18:05:32;93470.84;;;22.11;40.79
61345;BME280;47216;42.656;23.232;2023-03-04T18:08:08;93471.97;;;22.10;40.83
61345;BME280;47216;42.656;23.232;2023-03-04T18:10:39;93481.81;;;22.09;40.83
61345;BME280;47216;42.656;23.232;2023-03-04T18:13:13;93469.31;;;22.10;40.58
61345;BME280;47216;42.656;23.232;2023-03-04T18:15:46;93479.16;;;22.09;40.66
61345;BME280;47216;42.656;23.232;2023-03-04T18:18:16;93472.94;;;22.05;40.68
61345;BME280;47216;42.656;23.232;2023-03-04T18:20:49;93471.56;;;21.87;40.89
61345;BME280;47216;42.656;23.232;2023-03-04T18:23:31;93472.72;;;21.98;40.84
61345;BME280;47216;42.656;23.232;2023-03-04T18:26:05;93476.97;;;21.90;40.91
61345;BME280;47216;42.656;23.232;2023-03-04T18:28:41;93477.66;;;21.87;40.93
61345;BME280;47216;42.656;23.232;2023-03-04T18:31:10;93478.78;;;21.98;40.77
61345;BME280;47216;42.656;23.232;2023-03-04T18:33:41;93480.69;;;21.98;40.51
61345;BME280;47216;42.656;23.232;2023-03-04T18:36:13;93479.75;;;21.81;41.10
61345;BME280;47216;42.656;23.232;2023-03-04T18:38:49;93474.53;;;21.85;40.86
61345;BME280;47216;42.656;23.232;2023-03-04T18:41:23;93471.78;;;21.81;40.74
61345;BME280;47216;42.656;23.232;2023-03-04T18:43:56;93478.31;;;21.84;40.75
61345;BME280;47216;42.656;23.232;2023-03-04T18:46:38;93467.03;;;21.87;40.81
61345;BME280;47216;42.656;23.232;2023-03-04T18:49:09;93477.66;;;21.87;40.64
61345;BME280;47216;42.656;23.232;2023-03-04T18:51:43;93473.53;;;21.77;40.79
61345;BME280;47216;42.656;23.232;2023-03-04T18:54:16;93471.78;;;21.81;40.61
61345;BME280;47216;42.656;23.232;2023-03-04T18:56:52;93475.41;;;21.77;40.85
61345;BME280;47216;42.656;23.232;2023-03-04T18:59:32;93484.66;;;21.71;40.82
61345;BME280;47216;42.656;23.232;2023-03-04T19:02:16;93481.06;;;21.88;40.53
61345;BME280;47216;42.656;23.232;2023-03-04T19:04:53;93480.78;;;21.68;40.63
61345;BME280;47216;42.656;23.232;2023-03-04T19:07:22;93475.78;;;21.67;40.72
61345;BME280;47216;42.656;23.232;2023-03-04T19:09:56;93486.75;;;21.65;40.91
61345;BME280;47216;42.656;23.232;2023-03-04T19:12:30;93481.09;;;21.67;40.88
61345;BME280;47216;42.656;23.232;2023-03-04T19:15:04;93482.53;;;21.64;40.85
61345;BME280;47216;42.656;23.232;2023-03-04T19:17:36;93485.44;;;21.71;40.70
61345;BME280;47216;42.656;23.232;2023-03-04T19:20:12;93488.16;;;21.63;40.58
61345;BME280;47216;42.656;23.232;2023-03-04T19:22:50;93478.34;;;21.63;40.69
61345;BME280;47216;42.656;23.232;2023-03-04T19:25:21;93483.97;;;21.61;40.62
61345;BME280;47216;42.656;23.232;2023-03-04T19:27:51;93483.50;;;21.59;40.93
61345;BME280;47216;42.656;23.232;2023-03-04T19:30:27;93488.81;;;21.59;40.71
61345;BME280;47216;42.656;23.232;2023-03-04T19:33:03;93492.34;;;21.51;40.91
61345;BME280;47216;42.656;23.232;2023-03-04T19:35:40;93488.72;;;21.56;40.76
61345;BME280;47216;42.656;23.232;2023-03-04T19:38:12;93489.78;;;21.55;40.79
61345;BME280;47216;42.656;23.232;2023-03-04T19:40:44;93488.44;;;21.70;40.48
61345;BME280;47216;42.656;23.232;2023-03-04T19:43:18;93497.75;;;21.55;40.89
61345;BME280;47216;42.656;23.232;2023-03-04T19:45:57;93491.69;;;21.54;40.75
61345;BME280;47216;42.656;23.232;2023-03-04T19:48:32;93494.66;;;21.53;40.70
61345;BME280;47216;42.656;23.232;2023-03-04T19:51:13;93492.06;;;21.65;40.62
61345;BME280;47216;42.656;23.232;2023-03-04T19:53:44;93493.84;;;21.73;40.36
61345;BME280;47216;42.656;23.232;2023-03-04T19:56:17;93495.56;;;21.57;40.52
61345;BME280;47216;42.656;23.232;2023-03-04T19:58:45;93502.81;;;21.48;40.83
61345;BME280;47216;42.656;23.232;2023-03-04T20:01:22;93496.47;;;21.61;40.47
61345;BME280;47216;42.656;23.232;2023-03-04T20:03:55;93491.53;;;21.51;40.93
61345;BME280;47216;42.656;23.232;2023-03-04T20:06:26;93498.31;;;21.81;40.33
61345;BME280;47216;42.656;23.232;2023-03-04T20:08:57;93498.41;;;21.52;40.80
61345;BME280;47216;42.656;23.232;2023-03-04T20:11:27;93491.84;;;21.70;40.20
61345;BME280;47216;42.656;23.232;2023-03-04T20:14:00;93496.59;;;21.44;41.02
61345;BME280;47216;42.656;23.232;2023-03-04T20:16:33;93486.22;;;21.51;40.54
61345;BME280;47216;42.656;23.232;2023-03-04T20:19:04;93484.25;;;21.39;40.73
61345;BME280;47216;42.656;23.232;2023-03-04T20:21:34;93485.47;;;21.50;40.46
61345;BME280;47216;42.656;23.232;2023-03-04T20:24:03;93491.28;;;21.44;40.76
61345;BME280;47216;42.656;23.232;2023-03-04T20:26:34;93482.28;;;21.57;40.40
61345;BME280;47216;42.656;23.232;2023-03-04T20:29:07;93494.31;;;21.33;40.71